createdAt,value
2023-03-04T00:00:06.459Z,102118.91
2023-03-04T00:01:11.683Z,102123.25
2023-03-04T00:02:13.377Z,102118.00
2023-03-04T00:03:18.959Z,102116.25
2023-03-04T00:04:20.540Z,102118.00
2023-03-04T00:05:23.057Z,102118.00
2023-03-04T00:06:25.965Z,102119.69
2023-03-04T00:07:28.471Z,102118.00
2023-03-04T00:08:30.637Z,102119.69
2023-03-04T00:09:34.261Z,102118.81
2023-03-04T00:10:35.831Z,102114.41
2023-03-04T00:11:38.707Z,102127.53
2023-03-04T00:12:40.254Z,102109.97
2023-03-04T00:13:43.663Z,102117.88
2023-03-04T00:14:45.153Z,102118.78
2023-03-04T00:15:48.060Z,102121.41
2023-03-04T00:16:49.592Z,102115.28
2023-03-04T00:17:52.074Z,102114.41
2023-03-04T00:18:54.053Z,102122.31
2023-03-04T00:19:56.617Z,102119.69
2023-03-04T00:20:58.123Z,102122.31
2023-03-04T00:22:02.022Z,102114.41
2023-03-04T00:23:03.740Z,102115.28
2023-03-04T00:24:07.169Z,102119.69
2023-03-04T00:25:09.089Z,102110.88
2023-03-04T00:26:13.206Z,102117.00
2023-03-04T00:27:14.845Z,102108.16
2023-03-04T00:28:17.384Z,102117.88
2023-03-04T00:29:18.985Z,102114.28
2023-03-04T00:30:21.856Z,102114.28
2023-03-04T00:31:23.552Z,102118.69
2023-03-04T00:32:26.248Z,102119.56
2023-03-04T00:33:27.811Z,102108.16
2023-03-04T00:34:32.756Z,102111.66
2023-03-04T00:35:34.916Z,102106.34
2023-03-04T00:36:37.791Z,102109.88
2023-03-04T00:37:40.633Z,102102.84
2023-03-04T00:38:43.182Z,102105.47
2023-03-04T00:39:44.665Z,102102.84
2023-03-04T00:40:47.150Z,102098.47
2023-03-04T00:41:48.718Z,102096.72
2023-03-04T00:42:51.252Z,102104.56
2023-03-04T00:43:53.318Z,102103.72
2023-03-04T00:44:55.838Z,102101.06
2023-03-04T00:45:57.425Z,102094.94
2023-03-04T00:47:00.850Z,102098.44
2023-03-04T00:48:02.358Z,102098.47
2023-03-04T00:49:06.172Z,102101.97
2023-03-04T00:50:08.856Z,102100.22
2023-03-04T00:51:11.370Z,102104.63
2023-03-04T00:52:12.909Z,102102.84
2023-03-04T00:53:16.761Z,102099.34
2023-03-04T00:54:18.452Z,102101.06
2023-03-04T00:55:21.486Z,102100.16
2023-03-04T00:56:23.039Z,102096.66
2023-03-04T00:57:25.688Z,102099.28
2023-03-04T00:58:27.212Z,102101.94
2023-03-04T00:59:29.708Z,102102.84
2023-03-04T01:00:31.343Z,102089.66
2023-03-04T01:01:35.626Z,102094.06
2023-03-04T01:02:37.195Z,102094.97
2023-03-04T01:03:41.383Z,102091.53
2023-03-04T01:04:43.050Z,102094.16
2023-03-04T01:05:45.880Z,102095.06
2023-03-04T01:06:47.379Z,102095.06
2023-03-04T01:07:50.264Z,102095.06
2023-03-04T01:08:53.533Z,102094.28
2023-03-04T01:09:56.069Z,102090.72
2023-03-04T01:10:57.594Z,102089.84
2023-03-04T01:12:00.134Z,102086.38
2023-03-04T01:13:01.691Z,102088.06
2023-03-04T01:14:04.306Z,102088.06
2023-03-04T01:15:06.842Z,102091.56
2023-03-04T01:16:10.851Z,102095.06
2023-03-04T01:17:12.897Z,102091.53
2023-03-04T01:18:15.545Z,102087.16
2023-03-04T01:19:17.117Z,102085.38
2023-03-04T01:20:20.026Z,102082.75
2023-03-04T01:21:21.703Z,102081.88
2023-03-04T01:22:24.200Z,102080.16
2023-03-04T01:23:25.808Z,102079.25
2023-03-04T01:24:29.913Z,102079.25
2023-03-04T01:25:31.699Z,102078.34
2023-03-04T01:26:34.559Z,102077.47
2023-03-04T01:27:36.274Z,102080.13
2023-03-04T01:28:38.800Z,102084.53
2023-03-04T01:29:40.328Z,102080.97
2023-03-04T01:30:42.916Z,102080.97
2023-03-04T01:31:44.497Z,102083.63
2023-03-04T01:32:47.015Z,102080.13
2023-03-04T01:33:48.669Z,102081.81
2023-03-04T01:34:51.536Z,102080.03
2023-03-04T01:35:53.598Z,102082.69
2023-03-04T01:36:56.398Z,102075.72
2023-03-04T01:37:57.931Z,102081.81
2023-03-04T01:39:00.488Z,102079.25
2023-03-04T01:40:05.342Z,102078.41
2023-03-04T01:41:08.009Z,102076.66
2023-03-04T01:42:16.901Z,102074.13
2023-03-04T01:43:23.821Z,102077.66
2023-03-04T01:44:25.472Z,102075.94
2023-03-04T01:45:28.069Z,102075.09
2023-03-04T01:46:31.529Z,102074.25
2023-03-04T01:47:36.077Z,102074.25
2023-03-04T01:48:39.080Z,102067.19
2023-03-04T01:49:42.140Z,102070.66
2023-03-04T01:50:43.917Z,102071.53
2023-03-04T01:51:49.857Z,102067.13
2023-03-04T01:53:01.817Z,102067.97
2023-03-04T01:54:05.156Z,102063.56
2023-03-04T01:55:15.989Z,102064.44
2023-03-04T01:56:22.959Z,102059.16
2023-03-04T01:57:26.391Z,102059.09
2023-03-04T01:58:31.481Z,102061.72
2023-03-04T01:59:33.024Z,102057.31
2023-03-04T02:00:37.191Z,102058.19
2023-03-04T02:01:44.576Z,102057.31
2023-03-04T02:02:47.332Z,102058.19
2023-03-04T02:03:48.925Z,102060.81
2023-03-04T02:04:51.390Z,102055.53
2023-03-04T02:05:53.688Z,102062.53
2023-03-04T02:06:57.721Z,102059.03
2023-03-04T02:08:01.373Z,102059.94
2023-03-04T02:09:05.442Z,102057.28
2023-03-04T02:10:10.394Z,102060.81
2023-03-04T02:11:12.898Z,102059.91
2023-03-04T02:12:14.434Z,102064.31
2023-03-04T02:13:17.938Z,102056.31
2023-03-04T02:14:20.589Z,102054.63
2023-03-04T02:15:24.138Z,102050.19
2023-03-04T02:16:25.682Z,102048.50
2023-03-04T02:17:29.101Z,102052.00
2023-03-04T02:18:30.807Z,102051.06
2023-03-04T02:19:43.558Z,102054.56
2023-03-04T02:20:54.358Z,102051.91
2023-03-04T02:21:56.949Z,102048.41
2023-03-04T02:23:06.296Z,102040.50
2023-03-04T02:24:16.373Z,102052.78
2023-03-04T02:25:24.125Z,102051.91
2023-03-04T02:26:30.042Z,102045.78
2023-03-04T02:27:31.720Z,102042.25
2023-03-04T02:28:34.230Z,102050.16
2023-03-04T02:29:35.798Z,102052.78
2023-03-04T02:30:38.413Z,102048.28
2023-03-04T02:31:42.230Z,102037.75
2023-03-04T02:32:44.755Z,102042.25
2023-03-04T02:33:46.299Z,102048.28
2023-03-04T02:34:51.265Z,102045.66
2023-03-04T02:35:52.998Z,102046.66
2023-03-04T02:36:57.146Z,102035.25
2023-03-04T02:37:58.735Z,102044.09
2023-03-04T02:39:14.279Z,102030.09
2023-03-04T02:40:22.336Z,102031.84
2023-03-04T02:41:36.409Z,102038.88
2023-03-04T02:42:38.667Z,102041.59
2023-03-04T02:43:41.231Z,102038.09
2023-03-04T02:44:46.337Z,102031.09
2023-03-04T02:45:50.301Z,102035.38
2023-03-04T02:46:52.612Z,102033.69
2023-03-04T02:47:55.126Z,102029.25
2023-03-04T02:48:56.650Z,102035.38
2023-03-04T02:49:59.177Z,102037.16
2023-03-04T02:51:00.725Z,102030.91
2023-03-04T02:52:05.903Z,102028.28
2023-03-04T02:53:07.543Z,102033.56
2023-03-04T02:54:16.304Z,102023.03
2023-03-04T02:55:17.819Z,102023.94
2023-03-04T02:56:20.487Z,102024.78
2023-03-04T02:57:23.368Z,102018.56
2023-03-04T02:58:26.139Z,102023.84
2023-03-04T02:59:28.266Z,102018.56
2023-03-04T03:00:31.222Z,102020.38
2023-03-04T03:01:33.817Z,102015.91
2023-03-04T03:02:36.365Z,102021.16
2023-03-04T03:03:38.895Z,102016.81
2023-03-04T03:04:41.197Z,102015.91
2023-03-04T03:05:43.705Z,102015.91
2023-03-04T03:06:45.452Z,102009.75
2023-03-04T03:07:47.976Z,102015.03
2023-03-04T03:08:49.478Z,102017.75
2023-03-04T03:09:52.104Z,102015.13
2023-03-04T03:10:54.116Z,102019.44
2023-03-04T03:11:56.589Z,102017.75
2023-03-04T03:12:59.828Z,102015.94
2023-03-04T03:14:02.460Z,102022.16
2023-03-04T03:15:04.758Z,102016.88
2023-03-04T03:16:07.797Z,102017.75
2023-03-04T03:17:10.300Z,102017.75
2023-03-04T03:18:13.168Z,102012.47
2023-03-04T03:19:14.804Z,102012.47
2023-03-04T03:20:18.415Z,102015.03
2023-03-04T03:21:19.993Z,102011.50
2023-03-04T03:22:32.492Z,102013.25
2023-03-04T03:23:34.093Z,102011.53
2023-03-04T03:24:36.652Z,102009.84
2023-03-04T03:25:38.235Z,102010.75
2023-03-04T03:26:40.883Z,102007.34
2023-03-04T03:27:42.711Z,102005.63
2023-03-04T03:28:46.833Z,102012.66
2023-03-04T03:29:48.694Z,102003.91
2023-03-04T03:30:51.408Z,102003.91
2023-03-04T03:31:53.034Z,102009.16
2023-03-04T03:32:55.851Z,102010.88
2023-03-04T03:33:57.396Z,102008.25
2023-03-04T03:34:59.974Z,102007.34
2023-03-04T03:36:02.121Z,102008.16
2023-03-04T03:37:04.752Z,102012.53
2023-03-04T03:38:06.846Z,102008.13
2023-03-04T03:39:09.379Z,102008.97
2023-03-04T03:40:12.387Z,102002.78
2023-03-04T03:41:15.125Z,102002.78
2023-03-04T03:42:16.633Z,102002.78
2023-03-04T03:43:19.366Z,101997.50
2023-03-04T03:44:22.267Z,102007.22
2023-03-04T03:45:24.811Z,102007.22
2023-03-04T03:46:27.221Z,102005.50
2023-03-04T03:47:29.724Z,101997.59
2023-03-04T03:48:31.269Z,102000.22
2023-03-04T03:49:33.882Z,101998.50
2023-03-04T03:50:35.661Z,101995.94
2023-03-04T03:51:38.124Z,102002.91
2023-03-04T03:52:39.640Z,102000.25
2023-03-04T03:53:42.149Z,101996.81
2023-03-04T03:54:43.975Z,101992.44
2023-03-04T03:55:46.458Z,101994.22
2023-03-04T03:56:47.987Z,101995.06
2023-03-04T03:57:50.483Z,101995.06
2023-03-04T03:58:52.017Z,101994.22
2023-03-04T03:59:56.027Z,101993.34
2023-03-04T04:00:58.610Z,101991.53
2023-03-04T04:02:01.314Z,101994.09
2023-03-04T04:03:03.130Z,101992.38
2023-03-04T04:04:05.976Z,101995.84
2023-03-04T04:05:08.899Z,101996.66
2023-03-04T04:06:11.375Z,101996.66
2023-03-04T04:07:13.055Z,101998.38
2023-03-04T04:08:16.191Z,102001.00
2023-03-04T04:09:17.714Z,101994.88
2023-03-04T04:10:23.416Z,102000.09
2023-03-04T04:11:24.959Z,101998.38
2023-03-04T04:12:28.072Z,101994.81
2023-03-04T04:13:29.751Z,101997.44
2023-03-04T04:14:32.279Z,101991.31
2023-03-04T04:15:36.511Z,101992.19
2023-03-04T04:16:39.047Z,101997.44
2023-03-04T04:17:40.673Z,101992.97
2023-03-04T04:18:43.155Z,101992.06
2023-03-04T04:19:44.695Z,101992.97
2023-03-04T04:20:47.402Z,101987.66
2023-03-04T04:21:49.019Z,101988.41
2023-03-04T04:22:51.878Z,101994.56
2023-03-04T04:23:53.436Z,101991.91
2023-03-04T04:24:56.129Z,101989.22
2023-03-04T04:25:57.814Z,101985.75
2023-03-04T04:27:00.340Z,101987.44
2023-03-04T04:28:02.040Z,101989.16
2023-03-04T04:29:04.612Z,101994.41
2023-03-04T04:30:07.079Z,101990.94
2023-03-04T04:31:11.290Z,101998.81
2023-03-04T04:32:13.155Z,101983.88
2023-03-04T04:33:17.010Z,101990.88
2023-03-04T04:34:19.496Z,101996.19
2023-03-04T04:35:21.333Z,101990.06
2023-03-04T04:36:23.863Z,101997.97
2023-03-04T04:37:26.353Z,101989.28
2023-03-04T04:38:27.964Z,101993.69
2023-03-04T04:39:30.550Z,101995.47
2023-03-04T04:40:32.044Z,102000.72
2023-03-04T04:41:38.578Z,101998.09
2023-03-04T04:42:40.091Z,101996.41
2023-03-04T04:43:42.870Z,101995.53
2023-03-04T04:44:44.749Z,101997.31
2023-03-04T04:45:47.534Z,101998.09
2023-03-04T04:46:50.429Z,101998.09
2023-03-04T04:47:53.070Z,101999.03
2023-03-04T04:48:54.592Z,101998.97
2023-03-04T04:49:57.097Z,102004.31
2023-03-04T04:50:58.658Z,101997.28
2023-03-04T04:52:01.567Z,102008.63
2023-03-04T04:53:03.075Z,102004.22
2023-03-04T04:54:06.072Z,102005.09
2023-03-04T04:55:08.455Z,102006.81
2023-03-04T04:56:12.640Z,101996.28
2023-03-04T04:57:14.372Z,102005.03
2023-03-04T04:58:17.016Z,102003.25
2023-03-04T04:59:18.548Z,102005.97
2023-03-04T05:00:21.958Z,102002.47
2023-03-04T05:01:25.319Z,101995.47
2023-03-04T05:02:29.210Z,102001.53
2023-03-04T05:03:31.442Z,102000.69
2023-03-04T05:04:33.967Z,102001.53
2023-03-04T05:05:35.902Z,102000.72
2023-03-04T05:06:38.620Z,102001.53
2023-03-04T05:07:40.785Z,102003.25
2023-03-04T05:08:43.700Z,102004.09
2023-03-04T05:09:45.805Z,102005.88
2023-03-04T05:10:48.804Z,102006.72
2023-03-04T05:11:50.464Z,102003.25
2023-03-04T05:12:52.996Z,101999.69
2023-03-04T05:13:54.680Z,102000.56
2023-03-04T05:14:57.221Z,101997.00
2023-03-04T05:15:59.706Z,102003.19
2023-03-04T05:17:02.384Z,102008.47
2023-03-04T05:18:05.331Z,102000.59
2023-03-04T05:19:08.142Z,101998.81
2023-03-04T05:20:10.752Z,102007.69
2023-03-04T05:21:13.383Z,102002.53
2023-03-04T05:22:15.054Z,102001.69
2023-03-04T05:23:17.769Z,101999.97
2023-03-04T05:24:19.574Z,101996.53
2023-03-04T05:25:22.312Z,101995.69
2023-03-04T05:26:23.935Z,102000.09
2023-03-04T05:27:26.474Z,102003.63
2023-03-04T05:28:28.053Z,101994.94
2023-03-04T05:29:31.324Z,102000.34
2023-03-04T05:30:32.992Z,102000.34
2023-03-04T05:31:35.572Z,102000.34
2023-03-04T05:32:37.154Z,101997.72
2023-03-04T05:33:41.152Z,102003.84
2023-03-04T05:34:42.859Z,102004.72
2023-03-04T05:35:48.317Z,102002.06
2023-03-04T05:36:50.081Z,102004.63
2023-03-04T05:37:52.744Z,102011.66
2023-03-04T05:38:54.321Z,102009.97
2023-03-04T05:39:56.878Z,102013.44
2023-03-04T05:41:02.619Z,102009.03
2023-03-04T05:42:05.322Z,102003.75
2023-03-04T05:43:06.971Z,102014.31
2023-03-04T05:44:09.508Z,102012.59
2023-03-04T05:45:11.845Z,102005.53
2023-03-04T05:46:15.547Z,102017.88
2023-03-04T05:47:22.677Z,102002.06
2023-03-04T05:48:26.169Z,102011.66
2023-03-04T05:49:29.310Z,102013.44
2023-03-04T05:50:32.291Z,102007.34
2023-03-04T05:51:33.901Z,102004.72
2023-03-04T05:52:36.467Z,102009.97
2023-03-04T05:53:39.242Z,102012.59
2023-03-04T05:54:41.780Z,102009.03
2023-03-04T05:55:47.126Z,102008.13
2023-03-04T05:56:49.717Z,102006.34
2023-03-04T05:57:51.241Z,102009.75
2023-03-04T05:58:54.000Z,102013.25
2023-03-04T05:59:55.701Z,102012.34
2023-03-04T06:01:00.893Z,102002.66
2023-03-04T06:02:02.476Z,102009.72
2023-03-04T06:03:05.164Z,102014.03
2023-03-04T06:04:07.022Z,102011.41
2023-03-04T06:05:12.460Z,102009.75
2023-03-04T06:06:14.357Z,102004.63
2023-03-04T06:07:17.011Z,102010.69
2023-03-04T06:08:18.634Z,102012.47
2023-03-04T06:09:21.945Z,102015.13
2023-03-04T06:10:23.725Z,102013.31
2023-03-04T06:11:26.257Z,102008.97
2023-03-04T06:12:28.706Z,102006.34
2023-03-04T06:13:31.177Z,102015.94
2023-03-04T06:14:33.017Z,102008.00
2023-03-04T06:15:35.546Z,102012.41
2023-03-04T06:16:37.090Z,102015.91
2023-03-04T06:17:42.226Z,102015.91
2023-03-04T06:18:44.072Z,102015.91
2023-03-04T06:19:46.591Z,102020.25
2023-03-04T06:20:50.784Z,102018.47
2023-03-04T06:21:52.377Z,102022.81
2023-03-04T06:22:54.884Z,102026.31
2023-03-04T06:23:56.418Z,102028.03
2023-03-04T06:24:58.921Z,102027.16
2023-03-04T06:26:00.951Z,102021.91
2023-03-04T06:27:04.062Z,102028.88
2023-03-04T06:28:05.709Z,102030.66
2023-03-04T06:29:08.382Z,102020.97
2023-03-04T06:30:11.467Z,102025.31
2023-03-04T06:31:14.049Z,102026.16
2023-03-04T06:32:15.755Z,102022.63
2023-03-04T06:33:18.266Z,102026.16
2023-03-04T06:34:20.149Z,102026.16
2023-03-04T06:35:23.009Z,102036.72
2023-03-04T06:36:25.890Z,102033.16
2023-03-04T06:37:28.394Z,102030.53
2023-03-04T06:38:29.906Z,102034.06
2023-03-04T06:39:32.765Z,102032.34
2023-03-04T06:40:34.456Z,102035.84
2023-03-04T06:41:37.400Z,102029.72
2023-03-04T06:42:40.140Z,102035.84
2023-03-04T06:43:42.636Z,102031.44
2023-03-04T06:44:44.206Z,102036.72
2023-03-04T06:45:46.773Z,102040.13
2023-03-04T06:46:48.363Z,102040.13
2023-03-04T06:47:51.013Z,102040.13
2023-03-04T06:48:52.619Z,102046.22
2023-03-04T06:49:55.410Z,102041.00
2023-03-04T06:50:56.977Z,102036.53
2023-03-04T06:52:00.833Z,102045.22
2023-03-04T06:53:02.424Z,102048.72
2023-03-04T06:54:05.000Z,102046.09
2023-03-04T06:55:08.152Z,102049.56
2023-03-04T06:56:13.264Z,102048.72
2023-03-04T06:57:14.874Z,102045.22
2023-03-04T06:58:18.039Z,102045.16
2023-03-04T06:59:19.564Z,102048.72
2023-03-04T07:00:23.873Z,102047.81
2023-03-04T07:01:29.103Z,102046.00
2023-03-04T07:02:31.931Z,102044.19
2023-03-04T07:03:33.542Z,102055.59
2023-03-04T07:04:36.080Z,102051.09
2023-03-04T07:05:37.621Z,102056.31
2023-03-04T07:06:40.100Z,102046.59
2023-03-04T07:07:43.007Z,102047.53
2023-03-04T07:08:46.423Z,102045.78
2023-03-04T07:09:48.028Z,102049.38
2023-03-04T07:10:51.097Z,102050.31
2023-03-04T07:11:52.751Z,102049.44
2023-03-04T07:12:55.243Z,102046.88
2023-03-04T07:13:56.962Z,102052.13
2023-03-04T07:14:59.452Z,102050.44
2023-03-04T07:16:01.573Z,102054.84
2023-03-04T07:17:04.165Z,102055.72
2023-03-04T07:18:06.783Z,102050.50
2023-03-04T07:19:08.290Z,102054.00
2023-03-04T07:20:12.072Z,102055.72
2023-03-04T07:21:15.001Z,102060.97
2023-03-04T07:22:17.479Z,102057.41
2023-03-04T07:23:20.858Z,102059.13
2023-03-04T07:24:23.328Z,102057.34
2023-03-04T07:25:24.840Z,102052.94
2023-03-04T07:26:27.336Z,102058.22
2023-03-04T07:27:29.831Z,102061.63
2023-03-04T07:28:31.689Z,102059.00
2023-03-04T07:29:34.294Z,102060.72
2023-03-04T07:30:35.812Z,102059.78
2023-03-04T07:31:38.670Z,102063.28
2023-03-04T07:32:40.335Z,102060.59
2023-03-04T07:33:43.045Z,102071.13
2023-03-04T07:34:44.569Z,102065.88
2023-03-04T07:35:47.164Z,102069.38
2023-03-04T07:36:48.716Z,102066.72
2023-03-04T07:37:51.260Z,102072.84
2023-03-04T07:38:55.036Z,102068.50
2023-03-04T07:39:57.544Z,102071.13
2023-03-04T07:40:59.725Z,102065.00
2023-03-04T07:42:02.282Z,102071.13
2023-03-04T07:43:04.174Z,102068.50
2023-03-04T07:44:09.045Z,102070.22
2023-03-04T07:45:11.640Z,102069.28
2023-03-04T07:46:15.221Z,102064.00
2023-03-04T07:47:16.759Z,102065.72
2023-03-04T07:48:19.254Z,102062.19
2023-03-04T07:49:21.743Z,102073.56
2023-03-04T07:50:23.526Z,102070.88
2023-03-04T07:51:28.122Z,102073.47
2023-03-04T07:52:29.708Z,102074.28
2023-03-04T07:53:32.871Z,102081.28
2023-03-04T07:54:37.233Z,102069.81
2023-03-04T07:55:48.866Z,102077.66
2023-03-04T07:56:51.353Z,102076.75
2023-03-04T07:57:52.895Z,102072.34
2023-03-04T07:58:56.202Z,102075.88
2023-03-04T07:59:57.807Z,102078.53
2023-03-04T08:01:00.774Z,102079.44
2023-03-04T08:02:03.413Z,102075.88
2023-03-04T08:03:05.541Z,102084.59
2023-03-04T08:04:08.837Z,102079.31
2023-03-04T08:05:10.424Z,102073.97
2023-03-04T08:06:15.255Z,102073.06
2023-03-04T08:07:16.912Z,102080.88
2023-03-04T08:08:19.707Z,102078.25
2023-03-04T08:09:21.278Z,102076.44
2023-03-04T08:10:25.197Z,102084.34
2023-03-04T08:11:27.617Z,102085.25
2023-03-04T08:12:30.314Z,102084.38
2023-03-04T08:13:32.096Z,102082.63
2023-03-04T08:14:34.859Z,102080.88
2023-03-04T08:15:40.374Z,102083.53
2023-03-04T08:16:42.942Z,102081.75
2023-03-04T08:17:44.518Z,102082.63
2023-03-04T08:18:49.570Z,102080.84
2023-03-04T08:19:51.172Z,102079.97
2023-03-04T08:20:55.704Z,102079.97
2023-03-04T08:21:58.253Z,102085.19
2023-03-04T08:22:59.811Z,102078.97
2023-03-04T08:24:07.971Z,102078.13
2023-03-04T08:25:09.820Z,102085.13
2023-03-04T08:26:16.310Z,102077.22
2023-03-04T08:27:17.826Z,102085.06
2023-03-04T08:28:20.429Z,102077.94
2023-03-04T08:29:23.541Z,102076.03
2023-03-04T08:30:26.246Z,102084.59
2023-03-04T08:31:28.903Z,102080.03
2023-03-04T08:32:30.732Z,102080.72
2023-03-04T08:33:33.908Z,102080.56
2023-03-04T08:34:35.434Z,102079.56
2023-03-04T08:35:41.253Z,102078.66
2023-03-04T08:36:45.241Z,102082.06
2023-03-04T08:37:46.815Z,102082.88
2023-03-04T08:38:49.365Z,102083.72
2023-03-04T08:39:50.896Z,102085.53
2023-03-04T08:40:54.259Z,102082.03
2023-03-04T08:41:57.123Z,102079.44
2023-03-04T08:42:59.687Z,102083.00
2023-03-04T08:44:02.472Z,102082.16
2023-03-04T08:45:04.949Z,102081.22
2023-03-04T08:46:07.779Z,102085.53
2023-03-04T08:47:10.220Z,102073.97
2023-03-04T08:48:13.012Z,102073.88
2023-03-04T08:49:15.547Z,102077.34
2023-03-04T08:50:17.205Z,102079.03
2023-03-04T08:51:19.981Z,102079.03
2023-03-04T08:52:21.605Z,102085.16
2023-03-04T08:53:24.426Z,102075.47
2023-03-04T08:54:26.967Z,102084.25
2023-03-04T08:55:28.490Z,102083.38
2023-03-04T08:56:31.136Z,102070.91
2023-03-04T08:57:34.063Z,102077.69
2023-03-04T08:58:36.691Z,102073.09
2023-03-04T08:59:38.665Z,102069.25
2023-03-04T09:00:44.661Z,102071.59
2023-03-04T09:01:47.832Z,102070.50
2023-03-04T09:02:49.512Z,102078.31
2023-03-04T09:03:53.287Z,102076.38
2023-03-04T09:04:55.114Z,102078.09
2023-03-04T09:05:57.844Z,102074.59
2023-03-04T09:07:00.349Z,102065.81
2023-03-04T09:08:02.003Z,102072.81
2023-03-04T09:09:04.712Z,102065.81
2023-03-04T09:10:07.339Z,102075.44
2023-03-04T09:11:09.861Z,102076.25
2023-03-04T09:12:11.513Z,102075.25
2023-03-04T09:13:16.151Z,102070.03
2023-03-04T09:14:18.779Z,102069.97
2023-03-04T09:15:20.383Z,102070.03
2023-03-04T09:16:22.944Z,102064.75
2023-03-04T09:17:24.821Z,102071.75
2023-03-04T09:18:28.263Z,102069.97
2023-03-04T09:19:33.215Z,102069.84
2023-03-04T09:20:34.865Z,102074.06
2023-03-04T09:21:37.640Z,102076.53
2023-03-04T09:22:40.058Z,102067.75
2023-03-04T09:23:42.702Z,102071.25
2023-03-04T09:24:44.269Z,102072.19
2023-03-04T09:25:47.667Z,102075.59
2023-03-04T09:26:50.696Z,102079.97
2023-03-04T09:27:53.653Z,102074.56
2023-03-04T09:28:58.596Z,102080.56
2023-03-04T09:30:01.152Z,102071.72
2023-03-04T09:31:02.718Z,102075.00
2023-03-04T09:32:05.629Z,102072.19
2023-03-04T09:33:07.293Z,102068.59
2023-03-04T09:34:09.891Z,102072.00
2023-03-04T09:35:11.690Z,102073.72
2023-03-04T09:36:16.172Z,102066.63
2023-03-04T09:37:17.863Z,102079.81
2023-03-04T09:38:20.339Z,102071.06
2023-03-04T09:39:31.954Z,102075.56
2023-03-04T09:40:40.431Z,102074.69
2023-03-04T09:41:44.214Z,102072.91
2023-03-04T09:42:50.985Z,102078.19
2023-03-04T09:43:54.464Z,102075.56
2023-03-04T09:44:59.580Z,102075.56
2023-03-04T09:46:04.536Z,102077.28
2023-03-04T09:47:13.144Z,102075.41
2023-03-04T09:48:19.322Z,102078.84
2023-03-04T09:49:23.041Z,102074.34
2023-03-04T09:50:26.277Z,102073.41
2023-03-04T09:51:45.047Z,102070.69
2023-03-04T09:53:07.567Z,102076.81
2023-03-04T09:54:15.458Z,102069.72
2023-03-04T09:55:22.733Z,102066.97
2023-03-04T09:56:26.567Z,102071.25
2023-03-04T09:57:40.510Z,102071.25
2023-03-04T09:58:52.051Z,102071.41
2023-03-04T10:00:02.631Z,102064.44
2023-03-04T10:01:18.778Z,102068.84
2023-03-04T10:02:47.199Z,102060.97
2023-03-04T10:04:17.664Z,102060.13
2023-03-04T10:05:45.269Z,102060.97
2023-03-04T10:07:14.245Z,102059.00
2023-03-04T10:08:44.792Z,102059.59
2023-03-04T10:10:14.103Z,102055.88
2023-03-04T10:11:41.641Z,102056.66
2023-03-04T10:13:05.690Z,102048.88
2023-03-04T10:14:35.028Z,102048.25
2023-03-04T10:16:02.614Z,102048.41
2023-03-04T10:17:31.732Z,102049.34
2023-03-04T10:18:58.166Z,102050.34
2023-03-04T10:20:23.559Z,102043.28
2023-03-04T10:21:47.496Z,102043.97
2023-03-04T10:23:12.839Z,102044.38
2023-03-04T10:24:36.549Z,102046.34
2023-03-04T10:26:02.944Z,102042.25
2023-03-04T10:27:26.591Z,102042.69
2023-03-04T10:28:50.425Z,102035.31
2023-03-04T10:30:02.116Z,102037.72
2023-03-04T10:31:35.000Z,102036.50
2023-03-04T10:32:57.744Z,102037.19
2023-03-04T10:34:20.285Z,102039.91
2023-03-04T10:35:46.233Z,102035.53
2023-03-04T10:37:09.901Z,102035.78
2023-03-04T10:38:34.145Z,102036.00
2023-03-04T10:39:56.611Z,102029.97
2023-03-04T10:41:22.442Z,102032.59
2023-03-04T10:42:44.956Z,102029.97
2023-03-04T10:44:17.318Z,102037.09
2023-03-04T10:45:40.764Z,102031.97
2023-03-04T10:46:55.856Z,102029.31
2023-03-04T10:47:58.716Z,102026.69
2023-03-04T10:49:00.441Z,102025.59
2023-03-04T10:50:05.596Z,102024.72
2023-03-04T10:51:18.105Z,102028.25
2023-03-04T10:52:28.583Z,102023.81
2023-03-04T10:53:33.542Z,102026.47
2023-03-04T10:54:48.420Z,102029.09
2023-03-04T10:55:50.085Z,102026.50
2023-03-04T10:56:59.557Z,102021.22
2023-03-04T10:58:04.160Z,102022.94
2023-03-04T10:59:32.456Z,102024.72
2023-03-04T11:00:36.654Z,102026.50
2023-03-04T11:01:50.323Z,102026.50
2023-03-04T11:02:54.307Z,102022.94
2023-03-04T11:03:57.187Z,102021.22
2023-03-04T11:05:19.415Z,102029.88
2023-03-04T11:06:22.768Z,102025.38
2023-03-04T11:07:27.150Z,102019.06
2023-03-04T11:08:28.765Z,102029.47
2023-03-04T11:09:32.473Z,102027.69
2023-03-04T11:10:41.681Z,102024.03
2023-03-04T11:11:44.681Z,102022.19
2023-03-04T11:12:51.527Z,102022.09
2023-03-04T11:13:57.479Z,102014.78
2023-03-04T11:15:00.246Z,102022.56
2023-03-04T11:16:04.901Z,102017.97
2023-03-04T11:17:19.250Z,102013.34
2023-03-04T11:18:30.534Z,102014.91
2023-03-04T11:19:38.322Z,102017.38
2023-03-04T11:20:43.832Z,102010.13
2023-03-04T11:21:45.704Z,102013.56
2023-03-04T11:22:48.422Z,102009.81
2023-03-04T11:23:53.246Z,102011.34
2023-03-04T11:25:00.345Z,102007.69
2023-03-04T11:26:04.581Z,102010.25
2023-03-04T11:27:13.671Z,102010.97
2023-03-04T11:28:23.611Z,102005.56
2023-03-04T11:29:30.234Z,102004.56
2023-03-04T11:30:39.142Z,101998.25
2023-03-04T11:31:47.307Z,102004.41
2023-03-04T11:32:52.480Z,101999.94
2023-03-04T11:34:01.418Z,101998.25
2023-03-04T11:35:09.124Z,102001.81
2023-03-04T11:36:25.253Z,101996.63
2023-03-04T11:37:33.243Z,101998.59
2023-03-04T11:38:39.372Z,102004.03
2023-03-04T11:39:47.125Z,102002.50
2023-03-04T11:40:54.287Z,102000.88
2023-03-04T11:42:03.031Z,101997.53
2023-03-04T11:43:12.352Z,101999.31
2023-03-04T11:44:14.423Z,101999.22
2023-03-04T11:45:29.186Z,101999.16
2023-03-04T11:46:55.509Z,101994.44
2023-03-04T11:48:08.520Z,102000.38
2023-03-04T11:49:32.099Z,101996.63
2023-03-04T11:50:49.260Z,102001.47
2023-03-04T11:51:59.710Z,101992.44
2023-03-04T11:53:24.939Z,101986.91
2023-03-04T11:54:32.305Z,101984.00
2023-03-04T11:55:41.941Z,101985.72
2023-03-04T11:56:48.570Z,101981.16
2023-03-04T11:58:01.685Z,101977.59
2023-03-04T11:59:47.868Z,101975.88
2023-03-04T12:00:55.195Z,101974.19
2023-03-04T12:02:13.099Z,101972.47
2023-03-04T12:03:30.945Z,101967.25
2023-03-04T12:04:51.106Z,101967.34
2023-03-04T12:06:01.512Z,101970.06
2023-03-04T12:07:22.930Z,101964.06
2023-03-04T12:08:43.944Z,101969.53
2023-03-04T12:09:57.334Z,101956.41
2023-03-04T12:11:06.112Z,101962.47
2023-03-04T12:12:25.502Z,101960.50
2023-03-04T12:13:55.699Z,101956.94
2023-03-04T12:15:13.171Z,101954.28
2023-03-04T12:16:28.159Z,101951.47
2023-03-04T12:17:53.870Z,101956.56
2023-03-04T12:19:07.241Z,101947.59
2023-03-04T12:20:28.330Z,101949.16
2023-03-04T12:21:51.815Z,101948.13